sensor_id;sensor_type;location;lat;lon;timestamp;temperature;humidity
11246;DHT22;59870;50.106;8.580;2022-11-20T00:04:01;6.40;93.70
11246;DHT22;59870;50.106;8.580;2022-11-20T00:06:39;6.40;93.80
11246;DHT22;59870;50.106;8.580;2022-11-20T00:09:09;6.40;94.00
11246;DHT22;59870;50.106;8.580;2022-11-20T03:43:09;6.40;96.30
11246;DHT22;59870;50.106;8.580;2022-11-20T04:08:02;6.10;96.00
11246;DHT22;59870;50.106;8.580;2022-11-20T04:10:31;6.00;95.90
11246;DHT22;59870;50.106;8.580;2022-11-20T04:13:00;5.80;95.40
11246;DHT22;59870;50.106;8.580;2022-11-20T04:15:44;6.00;95.70
11246;DHT22;59870;50.106;8.580;2022-11-20T04:18:14;6.20;95.90
11246;DHT22;59870;50.106;8.580;2022-11-20T04:21:06;6.00;95.80
11246;DHT22;59870;50.106;8.580;2022-11-20T04:27:10;6.10;95.70
11246;DHT22;59870;50.106;8.580;2022-11-20T05:27:21;6.00;96.20
11246;DHT22;59870;50.106;8.580;2022-11-20T05:29:51;6.30;96.10
11246;DHT22;59870;50.106;8.580;2022-11-20T05:32:26;6.10;96.00
11246;DHT22;59870;50.106;8.580;2022-11-20T05:44:46;6.10;95.90
11246;DHT22;59870;50.106;8.580;2022-11-20T05:47:17;6.10;95.90
11246;DHT22;59870;50.106;8.580;2022-11-20T05:49:47;6.10;96.00
11246;DHT22;59870;50.106;8.580;2022-11-20T05:52:15;6.30;96.10
11246;DHT22;59870;50.106;8.580;2022-11-20T05:54:45;6.30;96.00
11246;DHT22;59870;50.106;8.580;2022-11-20T05:57:13;6.10;95.90
11246;DHT22;59870;50.106;8.580;2022-11-20T05:59:41;6.40;95.90
11246;DHT22;59870;50.106;8.580;2022-11-20T06:02:09;6.20;96.00
11246;DHT22;59870;50.106;8.580;2022-11-20T06:04:39;5.90;95.90
11246;DHT22;59870;50.106;8.580;2022-11-20T06:07:06;6.20;96.00
11246;DHT22;59870;50.106;8.580;2022-11-20T06:09:34;6.20;96.00
11246;DHT22;59870;50.106;8.580;2022-11-20T06:12:09;6.30;95.90
11246;DHT22;59870;50.106;8.580;2022-11-20T06:14:36;6.20;95.90
11246;DHT22;59870;50.106;8.580;2022-11-20T06:17:04;6.30;95.90
11246;DHT22;59870;50.106;8.580;2022-11-20T06:19:32;6.20;95.80
11246;DHT22;59870;50.106;8.580;2022-11-20T06:22:00;6.00;95.60
11246;DHT22;59870;50.106;8.580;2022-11-20T06:24:27;6.30;95.90
11246;DHT22;59870;50.106;8.580;2022-11-20T06:26:55;6.30;95.90
11246;DHT22;59870;50.106;8.580;2022-11-20T06:29:22;6.50;96.00
11246;DHT22;59870;50.106;8.580;2022-11-20T06:31:50;6.30;95.90
11246;DHT22;59870;50.106;8.580;2022-11-20T06:37:46;6.20;95.90
11246;DHT22;59870;50.106;8.580;2022-11-20T06:40:15;6.30;95.90
11246;DHT22;59870;50.106;8.580;2022-11-20T06:42:50;6.30;95.90
11246;DHT22;59870;50.106;8.580;2022-11-20T06:45:18;6.30;95.90
11246;DHT22;59870;50.106;8.580;2022-11-20T06:47:47;6.30;96.00
11246;DHT22;59870;50.106;8.580;2022-11-20T06:50:17;6.30;95.90
11246;DHT22;59870;50.106;8.580;2022-11-20T06:52:45;6.30;96.10
11246;DHT22;59870;50.106;8.580;2022-11-20T06:55:12;6.30;96.10
11246;DHT22;59870;50.106;8.580;2022-11-20T06:57:40;6.30;96.10
11246;DHT22;59870;50.106;8.580;2022-11-20T07:00:08;6.40;96.10
11246;DHT22;59870;50.106;8.580;2022-11-20T07:02:36;6.40;96.20
11246;DHT22;59870;50.106;8.580;2022-11-20T07:05:03;6.60;96.20
11246;DHT22;59870;50.106;8.580;2022-11-20T07:07:31;6.40;96.20
11246;DHT22;59870;50.106;8.580;2022-11-20T07:09:58;6.40;96.20
11246;DHT22;59870;50.106;8.580;2022-11-20T07:12:26;6.40;96.30
11246;DHT22;59870;50.106;8.580;2022-11-20T07:14:55;6.30;96.30
11246;DHT22;59870;50.106;8.580;2022-11-20T07:17:24;6.30;96.30
11246;DHT22;59870;50.106;8.580;2022-11-20T07:19:51;6.30;96.40
11246;DHT22;59870;50.106;8.580;2022-11-20T07:22:24;6.50;96.70
11246;DHT22;59870;50.106;8.580;2022-11-20T07:24:53;6.50;96.70
11246;DHT22;59870;50.106;8.580;2022-11-20T07:27:20;6.30;96.70
11246;DHT22;59870;50.106;8.580;2022-11-20T07:29:48;6.40;96.50
11246;DHT22;59870;50.106;8.580;2022-11-20T07:32:16;6.60;96.60
11246;DHT22;59870;50.106;8.580;2022-11-20T07:34:44;6.30;96.50
11246;DHT22;59870;50.106;8.580;2022-11-20T07:37:12;6.40;96.70
11246;DHT22;59870;50.106;8.580;2022-11-20T07:39:40;6.40;96.80
11246;DHT22;59870;50.106;8.580;2022-11-20T07:42:08;6.40;96.80
11246;DHT22;59870;50.106;8.580;2022-11-20T07:44:37;6.40;96.90
11246;DHT22;59870;50.106;8.580;2022-11-20T07:47:05;6.40;96.90
11246;DHT22;59870;50.106;8.580;2022-11-20T07:49:32;6.40;96.90
11246;DHT22;59870;50.106;8.580;2022-11-20T07:52:02;6.40;97.00
11246;DHT22;59870;50.106;8.580;2022-11-20T07:54:32;6.50;97.10
11246;DHT22;59870;50.106;8.580;2022-11-20T07:57:00;6.50;97.40
11246;DHT22;59870;50.106;8.580;2022-11-20T07:59:28;6.60;97.40
11246;DHT22;59870;50.106;8.580;2022-11-20T08:02:25;6.50;97.40
11246;DHT22;59870;50.106;8.580;2022-11-20T08:04:53;6.80;97.60
11246;DHT22;59870;50.106;8.580;2022-11-20T08:07:21;6.60;97.40
11246;DHT22;59870;50.106;8.580;2022-11-20T08:09:50;6.60;97.40
11246;DHT22;59870;50.106;8.580;2022-11-20T08:12:19;6.60;97.50
11246;DHT22;59870;50.106;8.580;2022-11-20T08:15:06;6.70;97.50
11246;DHT22;59870;50.106;8.580;2022-11-20T08:17:39;6.70;97.50
11246;DHT22;59870;50.106;8.580;2022-11-20T08:20:07;6.70;97.50
11246;DHT22;59870;50.106;8.580;2022-11-20T08:22:35;6.70;97.60
11246;DHT22;59870;50.106;8.580;2022-11-20T08:25:05;6.80;97.70
11246;DHT22;59870;50.106;8.580;2022-11-20T08:27:33;6.80;97.70
11246;DHT22;59870;50.106;8.580;2022-11-20T08:30:00;6.80;97.60
11246;DHT22;59870;50.106;8.580;2022-11-20T08:32:28;6.80;97.70
11246;DHT22;59870;50.106;8.580;2022-11-20T08:34:55;6.90;97.70
11246;DHT22;59870;50.106;8.580;2022-11-20T08:37:23;6.90;97.70
11246;DHT22;59870;50.106;8.580;2022-11-20T08:39:51;7.10;97.70
11246;DHT22;59870;50.106;8.580;2022-11-20T08:42:47;6.90;97.70
11246;DHT22;59870;50.106;8.580;2022-11-20T08:45:18;7.00;98.00
11246;DHT22;59870;50.106;8.580;2022-11-20T08:47:47;7.00;97.90
11246;DHT22;59870;50.106;8.580;2022-11-20T08:50:16;7.00;97.90
11246;DHT22;59870;50.106;8.580;2022-11-20T08:52:43;7.10;98.00
11246;DHT22;59870;50.106;8.580;2022-11-20T08:55:11;7.10;98.00
11246;DHT22;59870;50.106;8.580;2022-11-20T08:57:39;7.10;97.80
11246;DHT22;59870;50.106;8.580;2022-11-20T09:00:07;7.20;97.80
11246;DHT22;59870;50.106;8.580;2022-11-20T09:02:36;7.20;97.90
11246;DHT22;59870;50.106;8.580;2022-11-20T09:05:07;7.40;98.00
11246;DHT22;59870;50.106;8.580;2022-11-20T09:08:00;7.20;97.80
11246;DHT22;59870;50.106;8.580;2022-11-20T09:10:40;7.30;97.80
11246;DHT22;59870;50.106;8.580;2022-11-20T09:13:08;7.30;97.80
11246;DHT22;59870;50.106;8.580;2022-11-20T09:15:37;7.30;97.80
11246;DHT22;59870;50.106;8.580;2022-11-20T09:18:05;7.40;98.00
11246;DHT22;59870;50.106;8.580;2022-11-20T09:20:33;7.40;98.00
11246;DHT22;59870;50.106;8.580;2022-11-20T09:23:00;7.50;97.90
11246;DHT22;59870;50.106;8.580;2022-11-20T09:25:28;7.60;97.70
11246;DHT22;59870;50.106;8.580;2022-11-20T09:27:56;7.60;97.60
11246;DHT22;59870;50.106;8.580;2022-11-20T09:30:24;7.60;97.60
11246;DHT22;59870;50.106;8.580;2022-11-20T09:32:53;7.90;97.70
11246;DHT22;59870;50.106;8.580;2022-11-20T09:35:21;7.70;97.60
11246;DHT22;59870;50.106;8.580;2022-11-20T09:37:51;7.70;97.90
11246;DHT22;59870;50.106;8.580;2022-11-20T09:40:22;7.70;97.90
11246;DHT22;59870;50.106;8.580;2022-11-20T09:46:14;7.80;98.00
11246;DHT22;59870;50.106;8.580;2022-11-20T09:54:21;7.90;97.80
11246;DHT22;59870;50.106;8.580;2022-11-20T09:56:56;8.00;97.60
11246;DHT22;59870;50.106;8.580;2022-11-20T09:59:48;8.00;97.50
11246;DHT22;59870;50.106;8.580;2022-11-20T10:05:21;8.00;97.60
11246;DHT22;59870;50.106;8.580;2022-11-20T10:08:21;8.10;97.70
11246;DHT22;59870;50.106;8.580;2022-11-20T10:11:05;8.10;97.80
11246;DHT22;59870;50.106;8.580;2022-11-20T10:30:10;8.40;98.00
11246;DHT22;59870;50.106;8.580;2022-11-20T10:32:43;8.40;97.90
11246;DHT22;59870;50.106;8.580;2022-11-20T10:35:20;8.50;97.90
11246;DHT22;59870;50.106;8.580;2022-11-20T10:37:56;8.50;97.50
11246;DHT22;59870;50.106;8.580;2022-11-20T10:40:48;8.50;97.50
11246;DHT22;59870;50.106;8.580;2022-11-20T10:43:44;8.50;97.60
11246;DHT22;59870;50.106;8.580;2022-11-20T10:46:44;8.60;97.40
11246;DHT22;59870;50.106;8.580;2022-11-20T10:49:34;8.50;97.40
11246;DHT22;59870;50.106;8.580;2022-11-20T10:55:01;8.50;97.30
11246;DHT22;59870;50.106;8.580;2022-11-20T10:58:13;8.20;97.60
11246;DHT22;59870;50.106;8.580;2022-11-20T11:00:42;8.80;98.00
11246;DHT22;59870;50.106;8.580;2022-11-20T11:03:26;8.50;97.50
11246;DHT22;59870;50.106;8.580;2022-11-20T11:05:56;8.50;97.70
11246;DHT22;59870;50.106;8.580;2022-11-20T11:08:35;8.80;97.80
11246;DHT22;59870;50.106;8.580;2022-11-20T11:11:32;8.80;97.90
11246;DHT22;59870;50.106;8.580;2022-11-20T11:14:12;8.60;97.90
11246;DHT22;59870;50.106;8.580;2022-11-20T11:16:55;8.70;97.80
11246;DHT22;59870;50.106;8.580;2022-11-20T11:19:24;8.70;97.40
11246;DHT22;59870;50.106;8.580;2022-11-20T11:21:54;8.70;97.30
11246;DHT22;59870;50.106;8.580;2022-11-20T11:24:24;8.60;97.50
11246;DHT22;59870;50.106;8.580;2022-11-20T11:27:14;8.70;97.60
11246;DHT22;59870;50.106;8.580;2022-11-20T11:29:45;8.70;97.60
11246;DHT22;59870;50.106;8.580;2022-11-20T11:32:15;8.70;97.60
11246;DHT22;59870;50.106;8.580;2022-11-20T11:34:43;8.70;97.60
11246;DHT22;59870;50.106;8.580;2022-11-20T11:37:19;9.10;97.70
11246;DHT22;59870;50.106;8.580;2022-11-20T11:39:49;9.00;97.60
11246;DHT22;59870;50.106;8.580;2022-11-20T11:42:43;9.00;97.40
11246;DHT22;59870;50.106;8.580;2022-11-20T11:45:14;8.80;97.40
11246;DHT22;59870;50.106;8.580;2022-11-20T11:47:46;8.80;97.30
11246;DHT22;59870;50.106;8.580;2022-11-20T11:52:53;8.80;97.80
11246;DHT22;59870;50.106;8.580;2022-11-20T12:07:32;8.70;97.80
11246;DHT22;59870;50.106;8.580;2022-11-20T12:13:15;9.40;97.70
11246;DHT22;59870;50.106;8.580;2022-11-20T12:16:00;9.40;97.50
11246;DHT22;59870;50.106;8.580;2022-11-20T12:18:38;9.20;97.70
11246;DHT22;59870;50.106;8.580;2022-11-20T12:23:57;9.30;97.20
11246;DHT22;59870;50.106;8.580;2022-11-20T12:26:44;9.30;97.30
11246;DHT22;59870;50.106;8.580;2022-11-20T12:29:43;9.40;97.50
11246;DHT22;59870;50.106;8.580;2022-11-20T12:32:31;9.40;97.60
11246;DHT22;59870;50.106;8.580;2022-11-20T12:41:15;9.40;97.40
11246;DHT22;59870;50.106;8.580;2022-11-20T12:44:21;9.60;97.50
11246;DHT22;59870;50.106;8.580;2022-11-20T12:53:33;9.50;97.20
11246;DHT22;59870;50.106;8.580;2022-11-20T13:07:35;9.70;96.90
11246;DHT22;59870;50.106;8.580;2022-11-20T13:10:05;9.70;97.20
11246;DHT22;59870;50.106;8.580;2022-11-20T13:12:54;9.50;97.10
11246;DHT22;59870;50.106;8.580;2022-11-20T13:15:40;9.60;97.00
11246;DHT22;59870;50.106;8.580;2022-11-20T13:18:11;9.10;96.90
11246;DHT22;59870;50.106;8.580;2022-11-20T13:20:46;9.40;97.00
11246;DHT22;59870;50.106;8.580;2022-11-20T13:23:26;9.40;97.10
11246;DHT22;59870;50.106;8.580;2022-11-20T13:26:13;9.30;97.20
11246;DHT22;59870;50.106;8.580;2022-11-20T13:28:45;9.30;97.20
11246;DHT22;59870;50.106;8.580;2022-11-20T13:31:30;9.40;97.30
11246;DHT22;59870;50.106;8.580;2022-11-20T13:34:04;9.30;97.40
11246;DHT22;59870;50.106;8.580;2022-11-20T13:36:34;9.60;97.30
11246;DHT22;59870;50.106;8.580;2022-11-20T13:39:05;9.60;97.30
11246;DHT22;59870;50.106;8.580;2022-11-20T13:41:35;9.30;97.20
11246;DHT22;59870;50.106;8.580;2022-11-20T13:46:48;9.40;97.40
11246;DHT22;59870;50.106;8.580;2022-11-20T13:49:29;9.70;97.30
11246;DHT22;59870;50.106;8.580;2022-11-20T14:00:22;9.60;97.40
11246;DHT22;59870;50.106;8.580;2022-11-20T14:03:09;9.30;97.30
11246;DHT22;59870;50.106;8.580;2022-11-20T14:05:45;9.60;97.70
11246;DHT22;59870;50.106;8.580;2022-11-20T14:08:25;9.60;97.60
11246;DHT22;59870;50.106;8.580;2022-11-20T14:16:39;9.70;97.30
11246;DHT22;59870;50.106;8.580;2022-11-20T14:21:52;9.70;97.40
11246;DHT22;59870;50.106;8.580;2022-11-20T14:24:23;9.70;97.50
11246;DHT22;59870;50.106;8.580;2022-11-20T14:26:53;9.80;97.30
11246;DHT22;59870;50.106;8.580;2022-11-20T14:29:28;9.80;97.20
11246;DHT22;59870;50.106;8.580;2022-11-20T14:31:58;10.00;96.50
11246;DHT22;59870;50.106;8.580;2022-11-20T14:34:30;10.00;96.40
11246;DHT22;59870;50.106;8.580;2022-11-20T14:37:03;9.80;97.10
11246;DHT22;59870;50.106;8.580;2022-11-20T14:39:40;9.80;97.00
11246;DHT22;59870;50.106;8.580;2022-11-20T14:42:23;9.80;97.10
11246;DHT22;59870;50.106;8.580;2022-11-20T14:44:56;9.70;97.10
11246;DHT22;59870;50.106;8.580;2022-11-20T14:47:30;10.00;96.80
11246;DHT22;59870;50.106;8.580;2022-11-20T14:50:00;9.80;96.70
11246;DHT22;59870;50.106;8.580;2022-11-20T14:52:36;9.70;97.10
11246;DHT22;59870;50.106;8.580;2022-11-20T14:55:04;10.00;96.30
11246;DHT22;59870;50.106;8.580;2022-11-20T14:57:37;9.80;97.00
11246;DHT22;59870;50.106;8.580;2022-11-20T15:02:46;10.00;96.50
11246;DHT22;59870;50.106;8.580;2022-11-20T15:05:17;10.10;96.50
11246;DHT22;59870;50.106;8.580;2022-11-20T15:08:06;9.50;96.80
11246;DHT22;59870;50.106;8.580;2022-11-20T15:10:35;9.80;97.00
11246;DHT22;59870;50.106;8.580;2022-11-20T15:13:05;9.90;96.90
11246;DHT22;59870;50.106;8.580;2022-11-20T15:15:49;10.00;96.40
11246;DHT22;59870;50.106;8.580;2022-11-20T15:18:21;9.80;97.30
11246;DHT22;59870;50.106;8.580;2022-11-20T15:20:50;9.80;97.20
11246;DHT22;59870;50.106;8.580;2022-11-20T15:23:19;9.80;96.70
11246;DHT22;59870;50.106;8.580;2022-11-20T15:25:49;10.00;96.50
11246;DHT22;59870;50.106;8.580;2022-11-20T15:28:35;9.80;97.30
11246;DHT22;59870;50.106;8.580;2022-11-20T15:31:05;9.80;97.50
11246;DHT22;59870;50.106;8.580;2022-11-20T15:33:33;10.00;96.80
11246;DHT22;59870;50.106;8.580;2022-11-20T15:36:02;9.80;97.20
11246;DHT22;59870;50.106;8.580;2022-11-20T15:38:32;9.80;97.30
11246;DHT22;59870;50.106;8.580;2022-11-20T15:41:13;10.00;96.70
11246;DHT22;59870;50.106;8.580;2022-11-20T15:43:41;10.10;96.70
11246;DHT22;59870;50.106;8.580;2022-11-20T15:46:12;10.10;96.70
11246;DHT22;59870;50.106;8.580;2022-11-20T15:48:43;10.10;96.80
11246;DHT22;59870;50.106;8.580;2022-11-20T15:53:46;9.90;96.90
11246;DHT22;59870;50.106;8.580;2022-11-20T15:56:14;10.10;96.70
11246;DHT22;59870;50.106;8.580;2022-11-20T15:58:47;10.10;96.70
11246;DHT22;59870;50.106;8.580;2022-11-20T16:01:18;9.90;96.90
11246;DHT22;59870;50.106;8.580;2022-11-20T16:03:49;9.90;97.30
11246;DHT22;59870;50.106;8.580;2022-11-20T16:06:17;9.90;96.90
11246;DHT22;59870;50.106;8.580;2022-11-20T16:08:45;9.80;97.30
11246;DHT22;59870;50.106;8.580;2022-11-20T16:11:15;9.90;97.50
11246;DHT22;59870;50.106;8.580;2022-11-20T16:13:44;10.10;97.10
11246;DHT22;59870;50.106;8.580;2022-11-20T16:16:35;9.80;97.50
11246;DHT22;59870;50.106;8.580;2022-11-20T16:19:04;9.80;97.80
11246;DHT22;59870;50.106;8.580;2022-11-20T16:21:33;9.80;97.70
11246;DHT22;59870;50.106;8.580;2022-11-20T16:24:04;10.00;97.40
11246;DHT22;59870;50.106;8.580;2022-11-20T16:26:34;9.80;97.90
11246;DHT22;59870;50.106;8.580;2022-11-20T16:29:30;9.90;98.00
11246;DHT22;59870;50.106;8.580;2022-11-20T16:32:07;9.90;98.00
11246;DHT22;59870;50.106;8.580;2022-11-20T16:34:38;10.00;97.20
11246;DHT22;59870;50.106;8.580;2022-11-20T16:37:07;10.10;97.00
11246;DHT22;59870;50.106;8.580;2022-11-20T16:39:35;10.10;97.00
11246;DHT22;59870;50.106;8.580;2022-11-20T16:42:03;9.90;97.40
11246;DHT22;59870;50.106;8.580;2022-11-20T16:44:32;9.90;97.50
11246;DHT22;59870;50.106;8.580;2022-11-20T16:47:04;10.10;97.10
11246;DHT22;59870;50.106;8.580;2022-11-20T16:49:33;9.90;97.40
11246;DHT22;59870;50.106;8.580;2022-11-20T16:52:06;9.60;97.00
11246;DHT22;59870;50.106;8.580;2022-11-20T16:54:36;9.90;97.60
11246;DHT22;59870;50.106;8.580;2022-11-20T16:57:04;10.10;97.20
11246;DHT22;59870;50.106;8.580;2022-11-20T16:59:33;10.10;97.20
11246;DHT22;59870;50.106;8.580;2022-11-20T17:02:02;10.10;97.20
11246;DHT22;59870;50.106;8.580;2022-11-20T17:07:56;9.90;98.00
11246;DHT22;59870;50.106;8.580;2022-11-20T17:15:00;9.60;98.00
11246;DHT22;59870;50.106;8.580;2022-11-20T17:17:56;9.70;97.70
11246;DHT22;59870;50.106;8.580;2022-11-20T17:20:29;9.90;98.00
11246;DHT22;59870;50.106;8.580;2022-11-20T17:23:01;9.90;98.00
11246;DHT22;59870;50.106;8.580;2022-11-20T17:25:34;9.90;98.00
11246;DHT22;59870;50.106;8.580;2022-11-20T17:28:29;10.10;97.50
11246;DHT22;59870;50.106;8.580;2022-11-20T17:34:55;9.90;98.10
11246;DHT22;59870;50.106;8.580;2022-11-20T17:37:28;9.90;98.00
11246;DHT22;59870;50.106;8.580;2022-11-20T17:40:26;10.10;97.50
11246;DHT22;59870;50.106;8.580;2022-11-20T17:42:58;9.90;98.10
11246;DHT22;59870;50.106;8.580;2022-11-20T17:45:26;9.60;97.80
11246;DHT22;59870;50.106;8.580;2022-11-20T17:47:55;9.90;97.80
11246;DHT22;59870;50.106;8.580;2022-11-20T17:50:23;10.20;97.40
11246;DHT22;59870;50.106;8.580;2022-11-20T17:52:51;10.20;97.70
11246;DHT22;59870;50.106;8.580;2022-11-20T17:55:21;10.20;97.80
11246;DHT22;59870;50.106;8.580;2022-11-20T17:57:48;10.20;97.80
11246;DHT22;59870;50.106;8.580;2022-11-20T18:00:19;9.90;98.40
11246;DHT22;59870;50.106;8.580;2022-11-20T18:02:48;9.90;98.30
11246;DHT22;59870;50.106;8.580;2022-11-20T18:05:15;9.90;98.60
11246;DHT22;59870;50.106;8.580;2022-11-20T18:07:46;9.90;98.50
11246;DHT22;59870;50.106;8.580;2022-11-20T18:10:23;9.80;98.60
11246;DHT22;59870;50.106;8.580;2022-11-20T18:12:55;9.90;98.70
11246;DHT22;59870;50.106;8.580;2022-11-20T18:15:23;9.50;98.20
11246;DHT22;59870;50.106;8.580;2022-11-20T18:17:56;10.10;97.90
11246;DHT22;59870;50.106;8.580;2022-11-20T18:20:28;9.90;98.70
11246;DHT22;59870;50.106;8.580;2022-11-20T18:23:08;9.60;98.80
11246;DHT22;59870;50.106;8.580;2022-11-20T18:26:04;9.90;98.70
11246;DHT22;59870;50.106;8.580;2022-11-20T18:31:53;9.90;99.00
11246;DHT22;59870;50.106;8.580;2022-11-20T18:34:21;10.10;98.40
11246;DHT22;59870;50.106;8.580;2022-11-20T18:36:54;9.70;98.80
11246;DHT22;59870;50.106;8.580;2022-11-20T18:39:23;9.70;98.70
11246;DHT22;59870;50.106;8.580;2022-11-20T18:41:56;10.10;98.30
11246;DHT22;59870;50.106;8.580;2022-11-20T18:44:43;10.00;98.30
11246;DHT22;59870;50.106;8.580;2022-11-20T18:47:33;9.90;98.80
11246;DHT22;59870;50.106;8.580;2022-11-20T18:50:18;10.00;98.40
11246;DHT22;59870;50.106;8.580;2022-11-20T18:52:46;9.90;98.80
11246;DHT22;59870;50.106;8.580;2022-11-20T18:55:15;10.00;98.20
11246;DHT22;59870;50.106;8.580;2022-11-20T18:57:43;10.00;98.40
11246;DHT22;59870;50.106;8.580;2022-11-20T19:00:19;10.00;98.40
11246;DHT22;59870;50.106;8.580;2022-11-20T19:02:52;10.10;98.60
11246;DHT22;59870;50.106;8.580;2022-11-20T19:05:22;10.10;98.80
11246;DHT22;59870;50.106;8.580;2022-11-20T19:07:50;10.10;98.70
11246;DHT22;59870;50.106;8.580;2022-11-20T19:10:19;10.10;98.80
11246;DHT22;59870;50.106;8.580;2022-11-20T19:12:47;10.10;98.90
11246;DHT22;59870;50.106;8.580;2022-11-20T19:15:16;9.80;99.20
11246;DHT22;59870;50.106;8.580;2022-11-20T19:17:43;10.10;99.10
11246;DHT22;59870;50.106;8.580;2022-11-20T19:20:11;10.30;99.20
11246;DHT22;59870;50.106;8.580;2022-11-20T19:22:40;10.40;99.00
11246;DHT22;59870;50.106;8.580;2022-11-20T19:25:08;10.10;99.10
11246;DHT22;59870;50.106;8.580;2022-11-20T19:27:36;10.20;99.00
11246;DHT22;59870;50.106;8.580;2022-11-20T19:30:05;10.30;99.40
11246;DHT22;59870;50.106;8.580;2022-11-20T19:32:33;10.20;99.40
11246;DHT22;59870;50.106;8.580;2022-11-20T19:35:01;10.40;99.50
11246;DHT22;59870;50.106;8.580;2022-11-20T19:37:32;10.20;99.50
11246;DHT22;59870;50.106;8.580;2022-11-20T19:40:01;10.40;99.70
11246;DHT22;59870;50.106;8.580;2022-11-20T19:42:31;10.50;99.60
11246;DHT22;59870;50.106;8.580;2022-11-20T19:45:00;10.20;99.40
11246;DHT22;59870;50.106;8.580;2022-11-20T19:47:30;10.30;99.40
11246;DHT22;59870;50.106;8.580;2022-11-20T19:50:23;10.30;99.80
11246;DHT22;59870;50.106;8.580;2022-11-20T19:53:21;10.30;99.40
11246;DHT22;59870;50.106;8.580;2022-11-20T19:55:58;10.30;99.80
11246;DHT22;59870;50.106;8.580;2022-11-20T19:58:32;10.20;99.50
11246;DHT22;59870;50.106;8.580;2022-11-20T20:01:13;10.30;99.30
11246;DHT22;59870;50.106;8.580;2022-11-20T20:03:48;10.30;99.60
11246;DHT22;59870;50.106;8.580;2022-11-20T20:06:24;10.20;99.60
11246;DHT22;59870;50.106;8.580;2022-11-20T20:09:20;10.20;99.60
11246;DHT22;59870;50.106;8.580;2022-11-20T20:11:50;10.00;99.10
11246;DHT22;59870;50.106;8.580;2022-11-20T20:14:19;10.30;99.00
11246;DHT22;59870;50.106;8.580;2022-11-20T20:16:47;10.50;99.10
11246;DHT22;59870;50.106;8.580;2022-11-20T20:19:18;10.30;99.10
11246;DHT22;59870;50.106;8.580;2022-11-20T20:21:51;10.60;99.00
11246;DHT22;59870;50.106;8.580;2022-11-20T20:24:21;10.60;98.70
11246;DHT22;59870;50.106;8.580;2022-11-20T20:26:49;10.00;98.20
11246;DHT22;59870;50.106;8.580;2022-11-20T20:29:28;10.60;98.30
11246;DHT22;59870;50.106;8.580;2022-11-20T20:31:56;10.30;98.50
11246;DHT22;59870;50.106;8.580;2022-11-20T20:34:24;10.20;98.40
11246;DHT22;59870;50.106;8.580;2022-11-20T20:36:56;10.20;98.50
11246;DHT22;59870;50.106;8.580;2022-11-20T20:39:24;10.20;98.40
11246;DHT22;59870;50.106;8.580;2022-11-20T20:41:52;10.30;98.20
11246;DHT22;59870;50.106;8.580;2022-11-20T20:44:20;10.30;98.30
11246;DHT22;59870;50.106;8.580;2022-11-20T20:47:09;10.20;98.40
11246;DHT22;59870;50.106;8.580;2022-11-20T20:49:40;10.20;98.50
11246;DHT22;59870;50.106;8.580;2022-11-20T20:52:10;10.20;98.20
11246;DHT22;59870;50.106;8.580;2022-11-20T20:54:42;10.30;98.50
11246;DHT22;59870;50.106;8.580;2022-11-20T20:57:12;10.20;98.70
11246;DHT22;59870;50.106;8.580;2022-11-20T20:59:44;10.00;98.40
11246;DHT22;59870;50.106;8.580;2022-11-20T21:02:12;10.30;98.40
11246;DHT22;59870;50.106;8.580;2022-11-20T21:04:40;10.00;98.40
11246;DHT22;59870;50.106;8.580;2022-11-20T21:10:45;10.10;98.60
11246;DHT22;59870;50.106;8.580;2022-11-20T21:13:18;10.50;98.60
11246;DHT22;59870;50.106;8.580;2022-11-20T21:15:48;10.50;98.40
11246;DHT22;59870;50.106;8.580;2022-11-20T21:18:20;10.60;98.80
11246;DHT22;59870;50.106;8.580;2022-11-20T21:20:51;10.50;98.80
11246;DHT22;59870;50.106;8.580;2022-11-20T21:23:39;10.20;98.60
11246;DHT22;59870;50.106;8.580;2022-11-20T21:26:08;10.30;98.50
11246;DHT22;59870;50.106;8.580;2022-11-20T21:28:37;10.50;98.50
11246;DHT22;59870;50.106;8.580;2022-11-20T21:31:10;10.50;98.60
11246;DHT22;59870;50.106;8.580;2022-11-20T21:33:43;10.50;98.70
11246;DHT22;59870;50.106;8.580;2022-11-20T21:36:16;10.50;98.60
11246;DHT22;59870;50.106;8.580;2022-11-20T21:38:44;10.30;98.20
11246;DHT22;59870;50.106;8.580;2022-11-20T21:41:14;10.50;98.50
11246;DHT22;59870;50.106;8.580;2022-11-20T21:43:44;10.50;98.40
11246;DHT22;59870;50.106;8.580;2022-11-20T21:46:25;10.40;98.40
11246;DHT22;59870;50.106;8.580;2022-11-20T21:48:53;10.20;98.10
11246;DHT22;59870;50.106;8.580;2022-11-20T21:51:29;10.20;98.20
11246;DHT22;59870;50.106;8.580;2022-11-20T21:54:20;10.20;98.10
11246;DHT22;59870;50.106;8.580;2022-11-20T21:57:02;9.90;98.70
11246;DHT22;59870;50.106;8.580;2022-11-20T22:03:09;9.90;98.80
11246;DHT22;59870;50.106;8.580;2022-11-20T22:05:58;10.20;98.00
11246;DHT22;59870;50.106;8.580;2022-11-20T22:17:04;10.20;98.30
11246;DHT22;59870;50.106;8.580;2022-11-20T22:19:40;10.20;98.00
11246;DHT22;59870;50.106;8.580;2022-11-20T22:22:19;10.20;98.40
11246;DHT22;59870;50.106;8.580;2022-11-20T22:25:15;10.40;98.00
11246;DHT22;59870;50.106;8.580;2022-11-20T22:28:11;10.40;98.10
11246;DHT22;59870;50.106;8.580;2022-11-20T22:30:43;10.40;98.20
11246;DHT22;59870;50.106;8.580;2022-11-20T22:33:11;10.40;98.10
11246;DHT22;59870;50.106;8.580;2022-11-20T22:35:41;10.20;98.00
11246;DHT22;59870;50.106;8.580;2022-11-20T22:38:11;10.40;98.10
11246;DHT22;59870;50.106;8.580;2022-11-20T22:40:39;10.10;98.30
11246;DHT22;59870;50.106;8.580;2022-11-20T22:43:10;10.10;98.20
11246;DHT22;59870;50.106;8.580;2022-11-20T22:45:38;10.10;98.30
11246;DHT22;59870;50.106;8.580;2022-11-20T22:48:13;10.20;98.30
11246;DHT22;59870;50.106;8.580;2022-11-20T22:50:42;10.20;98.50
11246;DHT22;59870;50.106;8.580;2022-11-20T22:53:11;10.10;98.50
11246;DHT22;59870;50.106;8.580;2022-11-20T22:55:39;10.10;98.10
11246;DHT22;59870;50.106;8.580;2022-11-20T22:58:10;10.10;98.50
11246;DHT22;59870;50.106;8.580;2022-11-20T23:00:39;10.40;98.40
11246;DHT22;59870;50.106;8.580;2022-11-20T23:03:06;10.10;98.30
11246;DHT22;59870;50.106;8.580;2022-11-20T23:05:39;10.10;98.60
11246;DHT22;59870;50.106;8.580;2022-11-20T23:08:07;10.10;98.20
11246;DHT22;59870;50.106;8.580;2022-11-20T23:10:35;10.20;98.50
11246;DHT22;59870;50.106;8.580;2022-11-20T23:13:03;10.30;98.60
11246;DHT22;59870;50.106;8.580;2022-11-20T23:15:33;10.10;98.60
11246;DHT22;59870;50.106;8.580;2022-11-20T23:18:03;10.40;98.70
11246;DHT22;59870;50.106;8.580;2022-11-20T23:20:39;10.10;98.50
11246;DHT22;59870;50.106;8.580;2022-11-20T23:23:06;10.10;98.50
11246;DHT22;59870;50.106;8.580;2022-11-20T23:25:34;10.30;98.60
11246;DHT22;59870;50.106;8.580;2022-11-20T23:28:02;10.40;98.50
11246;DHT22;59870;50.106;8.580;2022-11-20T23:30:36;10.40;98.60
11246;DHT22;59870;50.106;8.580;2022-11-20T23:33:15;10.30;98.60
11246;DHT22;59870;50.106;8.580;2022-11-20T23:35:47;10.40;98.50
11246;DHT22;59870;50.106;8.580;2022-11-20T23:38:18;10.10;98.40
11246;DHT22;59870;50.106;8.580;2022-11-20T23:40:47;10.40;98.40